createdAt,value
2022-08-04T01:56:01.061Z,61.27
2022-08-04T01:58:30.868Z,61.19
2022-08-04T02:01:02.515Z,61.00
2022-08-04T02:04:20.824Z,62.26
2022-08-04T02:06:33.516Z,60.55
2022-08-04T02:09:11.290Z,60.14
2022-08-04T02:11:42.458Z,59.89
2022-08-04T02:14:40.310Z,60.39
2022-08-04T02:17:12.493Z,60.47
2022-08-04T02:19:56.701Z,61.98
2022-08-04T02:22:29.451Z,63.17
2022-08-04T02:25:03.215Z,61.90
2022-08-04T02:27:59.893Z,59.83
2022-08-04T02:30:32.441Z,60.09
2022-08-04T02:33:04.409Z,59.63
2022-08-04T02:35:37.555Z,61.12
2022-08-04T02:38:14.004Z,61.62
2022-08-04T02:40:43.722Z,61.41
2022-08-04T02:43:16.918Z,61.76
2022-08-04T02:46:06.185Z,61.67
2022-08-04T02:48:48.795Z,61.07
2022-08-04T02:51:19.988Z,62.39
2022-08-04T02:53:50.919Z,63.95
2022-08-04T02:56:21.649Z,62.94
2022-08-04T02:58:57.786Z,62.75
2022-08-04T03:01:25.707Z,61.84
2022-08-04T03:04:07.232Z,61.24
2022-08-04T03:07:20.727Z,61.52
2022-08-04T03:10:12.787Z,61.98
2022-08-04T03:13:06.394Z,63.15
2022-08-04T03:15:56.710Z,67.47
2022-08-04T03:19:12.391Z,67.04
2022-08-04T03:22:13.041Z,63.93
2022-08-04T03:25:20.506Z,62.00
2022-08-04T03:28:18.068Z,62.57
2022-08-04T03:31:10.153Z,63.70
2022-08-04T03:34:00.381Z,64.76
2022-08-04T03:36:57.389Z,65.17
2022-08-04T03:40:10.962Z,65.05
2022-08-04T03:43:58.044Z,67.23
2022-08-04T03:46:23.989Z,66.66
2022-08-04T03:49:30.324Z,66.98
2022-08-04T03:52:25.582Z,65.67
2022-08-04T03:55:31.984Z,63.70
2022-08-04T03:58:31.868Z,64.55
2022-08-04T04:01:14.519Z,64.41
2022-08-04T04:04:04.730Z,64.01
2022-08-04T04:06:54.040Z,63.21
2022-08-04T04:09:57.808Z,62.03
2022-08-04T04:12:53.640Z,62.53
2022-08-04T04:15:38.293Z,62.88
2022-08-04T04:18:22.076Z,62.57
2022-08-04T04:21:21.589Z,62.42
2022-08-04T04:24:03.356Z,62.65
2022-08-04T04:26:53.104Z,64.59
2022-08-04T04:29:54.006Z,65.47
2022-08-04T04:32:28.958Z,68.72
2022-08-04T04:35:12.511Z,66.81
2022-08-04T04:37:58.023Z,68.07
2022-08-04T04:40:35.733Z,67.16
2022-08-04T04:43:51.708Z,68.17
2022-08-04T04:46:28.213Z,68.69
2022-08-04T04:49:04.346Z,66.70
2022-08-04T04:51:38.719Z,66.38
2022-08-04T04:54:26.429Z,66.84
2022-08-04T04:57:04.548Z,65.66
2022-08-04T04:59:35.937Z,66.24
2022-08-04T05:02:35.917Z,65.76
2022-08-04T05:05:34.678Z,66.21
2022-08-04T05:08:45.010Z,65.38
2022-08-04T05:11:36.456Z,65.06
2022-08-04T05:14:35.875Z,64.57
2022-08-04T05:17:03.106Z,63.85
2022-08-04T05:19:52.870Z,63.65
2022-08-04T05:22:25.433Z,63.39
2022-08-04T05:25:01.939Z,61.98
2022-08-04T05:27:40.183Z,62.45
2022-08-04T05:30:10.025Z,61.87
2022-08-04T05:32:45.086Z,61.70
2022-08-04T05:35:52.083Z,61.67
2022-08-04T05:38:07.656Z,61.51
2022-08-04T05:40:36.075Z,61.87
2022-08-04T05:43:07.795Z,60.59
2022-08-04T05:45:39.005Z,60.23
2022-08-04T05:48:10.069Z,59.46
2022-08-04T05:50:39.380Z,58.86
2022-08-04T05:53:10.981Z,58.45
2022-08-04T05:55:56.783Z,58.19
2022-08-04T05:58:31.336Z,57.92
2022-08-04T06:01:01.974Z,57.61
2022-08-04T06:03:32.317Z,56.95
2022-08-04T06:06:01.964Z,56.75
2022-08-04T06:08:31.400Z,56.17
2022-08-04T06:11:06.180Z,56.72
2022-08-04T06:13:48.608Z,56.57
2022-08-04T06:16:29.006Z,56.16
2022-08-04T06:20:00.116Z,54.94
2022-08-04T06:21:53.031Z,54.59
2022-08-04T06:24:24.860Z,54.70
2022-08-04T06:26:53.794Z,54.17
2022-08-04T06:29:28.331Z,53.84
2022-08-04T06:32:26.713Z,53.30
2022-08-04T06:34:53.290Z,52.95
2022-08-04T06:37:41.061Z,53.12
2022-08-04T06:40:30.019Z,52.41
2022-08-04T06:43:00.803Z,52.42
2022-08-04T06:45:31.236Z,52.57
2022-08-04T06:48:01.211Z,52.43
2022-08-04T06:51:27.497Z,51.91
2022-08-04T06:53:19.158Z,51.37
2022-08-04T06:55:48.736Z,51.04
2022-08-04T06:58:18.670Z,50.88
2022-08-04T07:00:49.558Z,50.01
2022-08-04T07:03:19.425Z,50.04
2022-08-04T07:05:49.316Z,50.32
2022-08-04T07:08:18.123Z,49.48
2022-08-04T07:10:46.701Z,48.97
2022-08-04T07:13:15.919Z,48.88
2022-08-04T07:15:47.751Z,49.43
2022-08-04T07:18:16.324Z,49.70
2022-08-04T07:20:45.033Z,49.21
2022-08-04T07:23:17.658Z,49.03
2022-08-04T07:26:00.574Z,48.87
2022-08-04T07:28:40.793Z,47.69
2022-08-04T07:31:34.513Z,48.22
2022-08-04T07:34:21.437Z,48.13
2022-08-04T07:36:53.008Z,47.17
2022-08-04T07:39:28.345Z,46.72
2022-08-04T07:41:58.816Z,46.60
2022-08-04T07:44:27.556Z,46.06
2022-08-04T07:46:56.951Z,45.33
2022-08-04T07:49:54.351Z,45.52
2022-08-04T07:52:15.357Z,45.09
2022-08-04T07:54:44.585Z,43.74
2022-08-04T07:57:20.942Z,43.78
2022-08-04T08:00:00.765Z,43.61
2022-08-04T08:02:30.587Z,43.03
2022-08-04T08:04:58.995Z,42.27
2022-08-04T08:07:27.112Z,41.75
2022-08-04T08:09:55.206Z,41.17
2022-08-04T08:12:37.542Z,40.65
2022-08-04T08:15:15.933Z,39.93
2022-08-04T08:17:58.902Z,40.18
2022-08-04T08:20:30.483Z,39.49
2022-08-04T08:22:59.602Z,39.39
2022-08-04T08:25:28.417Z,38.20
2022-08-04T08:27:56.920Z,38.10
2022-08-04T08:30:31.443Z,38.75
2022-08-04T08:33:05.534Z,37.65
2022-08-04T08:35:47.414Z,37.61
2022-08-04T08:38:30.169Z,37.62
2022-08-04T08:41:13.739Z,36.29
2022-08-04T08:44:30.093Z,36.35
2022-08-04T08:47:10.863Z,36.12
2022-08-04T08:50:04.048Z,35.54
2022-08-04T08:53:01.528Z,34.73
2022-08-04T08:55:42.987Z,34.96
2022-08-04T08:58:32.674Z,32.65
2022-08-04T09:01:11.495Z,34.69
2022-08-04T09:04:22.738Z,34.08
2022-08-04T09:07:08.362Z,34.02
2022-08-04T09:09:48.559Z,34.73
2022-08-04T09:12:25.512Z,35.65
2022-08-04T09:15:01.858Z,33.02
2022-08-04T09:17:34.397Z,31.71
2022-08-04T09:20:07.400Z,32.37
2022-08-04T09:22:44.876Z,34.29
2022-08-04T09:25:19.450Z,32.74
2022-08-04T09:27:52.632Z,32.76
2022-08-04T09:30:23.113Z,32.17
2022-08-04T09:33:03.839Z,30.87
2022-08-04T09:35:42.162Z,31.99
2022-08-04T09:38:22.191Z,31.15
2022-08-04T09:40:58.593Z,31.16
2022-08-04T09:43:59.285Z,33.09
2022-08-04T09:46:34.764Z,31.00
2022-08-04T09:49:11.940Z,29.34
2022-08-04T09:51:59.836Z,31.32
2022-08-04T09:54:42.614Z,30.89
2022-08-04T09:57:18.487Z,29.53
2022-08-04T09:59:58.446Z,30.00
2022-08-04T10:02:29.459Z,29.45
2022-08-04T10:04:59.884Z,29.00
2022-08-04T10:08:04.772Z,30.37
2022-08-04T10:10:48.802Z,29.28
2022-08-04T10:13:27.132Z,30.31
2022-08-04T10:16:07.271Z,28.11
2022-08-04T10:18:50.919Z,29.36
2022-08-04T10:21:27.950Z,30.11
2022-08-04T10:24:32.121Z,29.17
2022-08-04T10:27:08.780Z,28.06
2022-08-04T10:29:43.919Z,28.39
2022-08-04T10:32:19.502Z,28.19
2022-08-04T10:35:02.586Z,28.32
2022-08-04T10:37:53.291Z,26.82
2022-08-04T10:40:39.682Z,26.95
2022-08-04T10:43:21.021Z,26.42
2022-08-04T10:45:58.027Z,27.91
2022-08-04T10:48:37.596Z,26.44
2022-08-04T10:51:22.723Z,25.12
2022-08-04T10:53:58.372Z,25.43
2022-08-04T10:56:34.039Z,25.49
2022-08-04T10:59:10.531Z,26.42
2022-08-04T11:01:50.757Z,27.21
2022-08-04T11:04:38.904Z,26.49
2022-08-04T11:07:08.431Z,25.74
2022-08-04T11:09:37.067Z,25.71
2022-08-04T11:12:11.309Z,26.60
2022-08-04T11:14:48.033Z,25.99
2022-08-04T11:17:22.298Z,27.48
2022-08-04T11:20:33.610Z,26.75
2022-08-04T11:23:04.165Z,26.36
2022-08-04T11:25:41.243Z,25.96
2022-08-04T11:28:15.354Z,26.11
2022-08-04T11:30:53.837Z,25.43
2022-08-04T11:33:28.559Z,25.51
2022-08-04T11:36:03.736Z,25.68
2022-08-04T11:38:38.540Z,25.26
2022-08-04T11:41:11.957Z,25.71
2022-08-04T11:44:02.765Z,25.30
2022-08-04T11:46:40.653Z,25.59
2022-08-04T11:49:12.985Z,25.80
2022-08-04T11:51:44.203Z,24.91
2022-08-04T11:54:13.756Z,25.02
2022-08-04T11:56:42.223Z,24.77
2022-08-04T11:59:10.407Z,27.02
2022-08-04T12:02:01.886Z,26.49
2022-08-04T12:04:47.344Z,25.90
2022-08-04T12:07:31.391Z,25.71
2022-08-04T12:10:11.136Z,25.38
2022-08-04T12:12:45.026Z,25.78
2022-08-04T12:15:20.216Z,26.05
2022-08-04T12:17:57.729Z,26.01
2022-08-04T12:20:31.683Z,25.53
2022-08-04T12:23:24.235Z,25.46
2022-08-04T12:25:57.204Z,26.08
2022-08-04T12:28:46.195Z,25.62
2022-08-04T12:31:22.102Z,24.63
2022-08-04T12:34:04.403Z,25.89
2022-08-04T12:36:40.341Z,25.28
2022-08-04T12:39:13.749Z,25.26
2022-08-04T12:41:46.852Z,24.55
2022-08-04T12:44:36.817Z,24.20
2022-08-04T12:47:27.556Z,27.25
2022-08-04T12:50:01.982Z,26.38
2022-08-04T12:55:21.431Z,27.24
2022-08-04T12:57:52.455Z,26.12
2022-08-04T13:00:33.166Z,26.02
2022-08-04T13:03:09.706Z,27.68
2022-08-04T13:05:41.899Z,26.39
2022-08-04T13:08:10.317Z,26.91
2022-08-04T13:10:39.549Z,27.08
2022-08-04T13:13:12.585Z,27.41
2022-08-04T13:15:47.467Z,27.72
2022-08-04T13:18:29.654Z,26.64
2022-08-04T13:21:20.133Z,26.96
2022-08-04T13:24:08.296Z,26.41
2022-08-04T13:26:54.664Z,26.49
2022-08-04T13:30:00.227Z,26.11
2022-08-04T13:32:25.565Z,26.67
2022-08-04T13:34:55.450Z,26.48
2022-08-04T13:37:27.793Z,26.57
2022-08-04T13:39:58.624Z,26.88
2022-08-04T13:42:28.094Z,26.85
2022-08-04T13:45:00.723Z,27.49
2022-08-04T13:47:31.531Z,27.53
2022-08-04T13:50:16.448Z,27.31
2022-08-04T13:52:46.979Z,27.24
2022-08-04T13:55:27.013Z,27.90
2022-08-04T13:57:59.730Z,26.95
2022-08-04T14:00:38.441Z,27.26
2022-08-04T14:03:23.937Z,28.05
2022-08-04T14:06:15.044Z,27.01
2022-08-04T14:08:53.178Z,26.47
2022-08-04T14:12:09.446Z,26.00
2022-08-04T14:14:19.368Z,26.57
2022-08-04T14:17:05.885Z,26.19
2022-08-04T14:19:52.472Z,25.41
2022-08-04T14:22:31.610Z,25.98
2022-08-04T14:25:04.189Z,26.67
2022-08-04T14:27:42.480Z,28.86
2022-08-04T14:30:22.979Z,27.72
2022-08-04T14:34:02.005Z,27.93
2022-08-04T14:35:58.551Z,27.59
2022-08-04T14:38:43.434Z,28.80
2022-08-04T14:41:13.257Z,28.28
2022-08-04T14:43:51.872Z,29.04
2022-08-04T14:46:20.322Z,28.90
2022-08-04T14:49:10.886Z,27.80
2022-08-04T14:51:42.155Z,27.42
2022-08-04T14:54:17.303Z,27.49
2022-08-04T14:56:55.541Z,27.01
2022-08-04T14:59:24.546Z,27.76
2022-08-04T15:02:00.371Z,27.86
2022-08-04T15:04:31.341Z,28.10
2022-08-04T15:07:00.321Z,26.85
2022-08-04T15:09:29.142Z,26.78
2022-08-04T15:11:58.544Z,28.12
2022-08-04T15:14:37.063Z,27.87
2022-08-04T15:17:11.952Z,27.85
2022-08-04T15:19:40.628Z,27.41
2022-08-04T15:22:23.486Z,27.03
2022-08-04T15:24:54.847Z,28.47
2022-08-04T15:27:28.367Z,28.12
2022-08-04T15:30:03.054Z,27.38
2022-08-04T15:32:33.283Z,28.28
2022-08-04T15:35:06.567Z,27.88
2022-08-04T15:37:47.462Z,27.05
2022-08-04T15:40:26.933Z,26.90
2022-08-04T15:43:32.133Z,27.00
2022-08-04T15:46:41.860Z,27.00
2022-08-04T15:48:52.321Z,28.19
2022-08-04T15:51:31.808Z,27.68
2022-08-04T15:54:27.987Z,27.75
2022-08-04T15:57:01.317Z,28.61
2022-08-04T16:00:00.310Z,28.03
2022-08-04T16:02:39.191Z,28.31
2022-08-04T16:05:37.240Z,28.22
2022-08-04T16:08:18.592Z,28.15
2022-08-04T16:10:51.288Z,28.63
2022-08-04T16:13:22.269Z,27.58
2022-08-04T16:15:54.309Z,26.99
2022-08-04T16:18:40.818Z,27.71
2022-08-04T16:21:20.125Z,27.49
2022-08-04T16:24:02.240Z,27.99
2022-08-04T16:26:46.148Z,28.14
2022-08-04T16:29:36.466Z,28.36
2022-08-04T16:32:23.645Z,28.25
2022-08-04T16:34:59.692Z,27.26
2022-08-04T16:37:33.727Z,27.26
2022-08-04T16:40:34.057Z,28.66
2022-08-04T16:43:05.414Z,27.87
2022-08-04T16:45:46.924Z,27.90
2022-08-04T16:48:17.500Z,29.55
2022-08-04T16:50:51.510Z,28.71
2022-08-04T16:54:02.577Z,29.00
2022-08-04T16:56:10.535Z,27.70
2022-08-04T16:58:53.016Z,28.62
2022-08-04T17:01:33.962Z,29.25
2022-08-04T17:04:08.481Z,29.44
2022-08-04T17:06:38.588Z,29.69
2022-08-04T17:09:07.653Z,28.89
2022-08-04T17:11:35.408Z,28.76
2022-08-04T17:14:05.693Z,29.96
2022-08-04T17:16:36.290Z,29.29
2022-08-04T17:19:06.840Z,30.12
2022-08-04T17:21:49.083Z,29.72
2022-08-04T17:24:18.094Z,30.80
2022-08-04T17:26:53.511Z,30.07
2022-08-04T17:29:26.168Z,30.92
2022-08-04T17:32:18.701Z,31.32
2022-08-04T17:34:52.514Z,29.90
2022-08-04T17:37:39.766Z,29.85
2022-08-04T17:40:18.466Z,31.34
2022-08-04T17:43:03.347Z,31.52
2022-08-04T17:46:15.491Z,30.91
2022-08-04T17:49:11.898Z,30.94
2022-08-04T17:52:05.072Z,30.18
2022-08-04T17:54:39.890Z,32.37
2022-08-04T17:57:20.635Z,32.79
2022-08-04T17:59:57.561Z,32.16
2022-08-04T18:02:32.445Z,32.75
2022-08-04T18:05:06.956Z,32.43
2022-08-04T18:08:35.058Z,32.57
2022-08-04T18:10:44.468Z,32.83
2022-08-04T18:13:25.422Z,33.50
2022-08-04T18:16:03.198Z,34.22
2022-08-04T18:18:31.159Z,33.44
2022-08-04T18:21:03.227Z,34.01
2022-08-04T18:23:34.132Z,34.09
2022-08-04T18:26:11.466Z,34.41
2022-08-04T18:28:41.986Z,34.57
2022-08-04T18:31:12.383Z,34.50
2022-08-04T18:33:56.931Z,35.58
2022-08-04T18:36:32.751Z,35.05
2022-08-04T18:39:12.721Z,35.16
2022-08-04T18:42:01.676Z,34.95
2022-08-04T18:44:31.535Z,36.89
2022-08-04T18:47:19.467Z,37.01
2022-08-04T18:50:59.578Z,37.10
2022-08-04T18:52:45.196Z,37.49
2022-08-04T18:55:55.322Z,37.89
2022-08-04T18:58:07.273Z,37.61
2022-08-04T19:00:45.108Z,38.42
2022-08-04T19:03:16.243Z,37.53
2022-08-04T19:05:52.444Z,37.86
2022-08-04T19:11:37.133Z,38.79
2022-08-04T19:13:58.883Z,39.57
2022-08-04T19:16:28.453Z,39.94
2022-08-04T19:18:56.882Z,40.30
2022-08-04T19:22:00.835Z,40.61
2022-08-04T19:24:28.692Z,40.53
2022-08-04T19:27:07.599Z,39.40
2022-08-04T19:29:41.183Z,39.71
2022-08-04T19:32:14.700Z,39.32
2022-08-04T19:34:46.031Z,39.74
2022-08-04T19:37:57.272Z,39.88
2022-08-04T19:40:05.737Z,40.60
2022-08-04T19:42:35.010Z,40.97
2022-08-04T19:45:03.255Z,42.10
2022-08-04T19:48:17.108Z,42.13
2022-08-04T19:50:19.275Z,41.46
2022-08-04T19:52:51.777Z,41.09
2022-08-04T19:58:13.225Z,40.36
2022-08-04T20:00:44.630Z,40.11
2022-08-04T20:03:20.287Z,40.48
2022-08-04T20:05:53.219Z,40.80
2022-08-04T20:08:23.887Z,41.15
2022-08-04T20:10:54.664Z,41.73
2022-08-04T20:13:30.956Z,41.45
2022-08-04T20:16:14.927Z,41.07
2022-08-04T20:18:59.541Z,41.95
2022-08-04T20:21:54.050Z,41.65
2022-08-04T20:24:40.036Z,42.04
2022-08-04T20:27:11.644Z,42.38
2022-08-04T20:29:48.959Z,42.99
2022-08-04T20:32:19.755Z,43.03
2022-08-04T20:34:48.490Z,43.32
2022-08-04T20:37:16.767Z,43.85
2022-08-04T20:39:44.739Z,43.06
2022-08-04T20:42:27.385Z,43.69
2022-08-04T20:44:57.401Z,43.41
2022-08-04T20:47:26.699Z,43.63
2022-08-04T20:49:59.081Z,43.71
2022-08-04T20:52:30.233Z,43.61
2022-08-04T20:54:58.782Z,43.63
2022-08-04T20:57:49.459Z,43.03
2022-08-04T21:00:17.552Z,42.87
2022-08-04T21:02:54.545Z,42.64
2022-08-04T21:05:23.149Z,45.51
2022-08-04T21:07:51.181Z,46.68
2022-08-04T21:10:21.886Z,46.13
2022-08-04T21:12:50.469Z,46.01
2022-08-04T21:15:26.384Z,45.64
2022-08-04T21:18:14.520Z,45.52
2022-08-04T21:20:45.039Z,45.46
2022-08-04T21:23:16.144Z,45.94
2022-08-04T21:25:45.536Z,46.45
2022-08-04T21:28:20.593Z,46.14
2022-08-04T21:30:52.759Z,46.11
2022-08-04T21:33:22.985Z,46.44
2022-08-04T21:35:54.211Z,46.54
2022-08-04T21:38:27.921Z,46.46
2022-08-04T21:41:11.597Z,45.97
2022-08-04T21:43:48.173Z,46.46
2022-08-04T21:46:18.302Z,46.23
2022-08-04T21:48:48.773Z,46.09
2022-08-04T21:51:21.683Z,46.63
2022-08-04T21:54:08.887Z,46.87
2022-08-04T21:56:37.934Z,46.74
2022-08-04T21:59:11.576Z,46.79
2022-08-04T22:01:50.101Z,47.37
2022-08-04T22:04:19.363Z,47.51
2022-08-04T22:06:47.592Z,48.20
2022-08-04T22:09:22.028Z,48.78
2022-08-04T22:11:51.913Z,49.59
2022-08-04T22:17:13.309Z,50.11
2022-08-04T22:19:55.572Z,49.77
2022-08-04T22:22:25.946Z,49.79
2022-08-04T22:24:55.383Z,50.10
2022-08-04T22:27:47.435Z,50.12
2022-08-04T22:30:17.371Z,50.95
2022-08-04T22:32:47.469Z,50.86
2022-08-04T22:35:36.396Z,51.63
2022-08-04T22:38:28.069Z,52.28
2022-08-04T22:40:58.028Z,51.87
2022-08-04T22:43:32.951Z,52.77
2022-08-04T22:46:05.299Z,51.33
2022-08-04T22:48:37.128Z,50.73
2022-08-04T22:51:06.992Z,50.37
2022-08-04T22:53:36.000Z,50.93
2022-08-04T22:56:10.201Z,51.18
2022-08-04T22:58:44.730Z,51.08
2022-08-04T23:01:14.985Z,50.74
2022-08-04T23:03:51.038Z,50.77
2022-08-04T23:06:25.591Z,51.24
2022-08-04T23:08:56.851Z,53.55
2022-08-04T23:11:34.610Z,53.28
2022-08-04T23:14:05.207Z,53.19
2022-08-04T23:16:40.755Z,52.97
2022-08-04T23:19:15.142Z,54.37
2022-08-04T23:21:47.679Z,54.54
2022-08-04T23:24:29.665Z,53.57
2022-08-04T23:26:58.133Z,53.72
2022-08-04T23:29:26.270Z,52.96
2022-08-04T23:31:59.434Z,52.45
2022-08-04T23:34:30.072Z,52.42
2022-08-04T23:36:59.139Z,52.45
2022-08-04T23:40:03.436Z,52.71
2022-08-04T23:42:20.862Z,53.36
2022-08-04T23:44:54.582Z,52.97
2022-08-04T23:48:14.777Z,52.51
2022-08-04T23:50:12.648Z,52.52
2022-08-04T23:52:40.606Z,52.35
2022-08-04T23:55:19.044Z,52.51
2022-08-04T23:58:06.033Z,53.88
